ADDS METAR Data INFO
IDs: Format: Raw Decoded Include TAF

Data at: 1847 UTC 17 Oct 2017

METAR for:KZPH (Zephyrhills Muni, FL, US)
Text:KZPH 171835Z AUTO 03011G15KT 10SM -RA SCT020 BKN026 26/22 A3006 RMK AO2 T02550219
Temperature: 25.5°C ( 78°F)
Dewpoint: 21.9°C ( 71°F) [RH = 81%]
Pressure (altimeter):30.06 inches Hg (1018.0 mb)
Winds:from the NNE (30 degrees) at 13 MPH (11 knots; 5.7 m/s) gusting to 17 MPH (15 knots; 7.7 m/s)
Visibility:10 or more sm (16+ km)
Ceiling:2600 feet AGL
Clouds: scattered clouds at 2000 feet AGL, broken clouds at 2600 feet AGL
Weather:-RA (light rain)
QC Flag:automated observation with no human augmentation